createdAt,value
2023-04-30T00:00:38.704Z,21.75
2023-04-30T00:03:42.073Z,24.00
2023-04-30T00:06:46.859Z,21.08
2023-04-30T00:09:51.251Z,23.45
2023-04-30T00:12:54.537Z,21.13
2023-04-30T00:15:57.749Z,20.55
2023-04-30T00:19:00.895Z,21.83
2023-04-30T00:22:06.202Z,19.98
2023-04-30T00:25:09.892Z,24.10
2023-04-30T00:28:13.097Z,21.25
2023-04-30T00:31:16.618Z,21.50
2023-04-30T00:34:19.792Z,24.42
2023-04-30T00:37:24.382Z,24.52
2023-04-30T00:40:28.027Z,20.88
2023-04-30T00:43:31.572Z,23.00
2023-04-30T00:46:34.756Z,23.75
2023-04-30T00:49:37.980Z,20.48
2023-04-30T00:52:42.686Z,17.83
2023-04-30T00:55:46.214Z,18.42
2023-04-30T00:58:54.355Z,21.95
2023-04-30T01:01:57.676Z,18.13
2023-04-30T01:05:00.982Z,19.88
2023-04-30T01:08:05.874Z,18.60
2023-04-30T01:11:20.981Z,20.67
2023-04-30T01:14:30.169Z,19.17
2023-04-30T01:17:39.015Z,17.88
2023-04-30T01:20:47.497Z,21.85
2023-04-30T01:24:17.220Z,17.58
2023-04-30T01:27:32.931Z,18.52
2023-04-30T01:30:38.056Z,13.77
2023-04-30T01:33:41.245Z,18.98
2023-04-30T01:36:56.542Z,17.77
2023-04-30T01:40:11.767Z,17.20
2023-04-30T01:43:24.537Z,12.63
2023-04-30T01:46:31.603Z,16.73
2023-04-30T01:49:47.071Z,15.15
2023-04-30T01:52:54.487Z,15.55
2023-04-30T01:56:03.137Z,14.68
2023-04-30T01:59:07.445Z,11.48
2023-04-30T02:02:12.115Z,14.82
2023-04-30T02:05:16.135Z,15.35
2023-04-30T02:08:19.295Z,15.20
2023-04-30T02:11:24.185Z,13.70
2023-04-30T02:14:27.904Z,16.05
2023-04-30T02:17:33.039Z,17.02
2023-04-30T02:20:36.255Z,15.13
2023-04-30T02:23:42.811Z,10.90
2023-04-30T02:26:46.037Z,17.63
2023-04-30T02:29:50.515Z,12.85
2023-04-30T02:32:55.669Z,13.13
2023-04-30T02:36:00.962Z,14.20
2023-04-30T02:39:04.298Z,11.27
2023-04-30T02:42:11.444Z,14.32
2023-04-30T02:45:14.923Z,14.20
2023-04-30T02:48:19.472Z,14.90
2023-04-30T02:51:23.100Z,12.88
2023-04-30T02:54:26.355Z,13.40
2023-04-30T02:57:29.543Z,10.05
2023-04-30T03:00:32.763Z,11.82
2023-04-30T03:03:37.687Z,11.80
2023-04-30T03:06:42.232Z,17.90
2023-04-30T03:09:46.720Z,14.57
2023-04-30T03:12:50.516Z,16.00
2023-04-30T03:16:00.697Z,12.75
2023-04-30T03:19:06.370Z,15.10
2023-04-30T03:22:10.064Z,11.88
2023-04-30T03:25:13.272Z,15.02
2023-04-30T03:28:16.740Z,17.83
2023-04-30T03:31:20.062Z,14.55
2023-04-30T03:34:25.108Z,13.50
2023-04-30T03:37:28.325Z,12.00
2023-04-30T03:40:31.919Z,13.07
2023-04-30T03:43:35.375Z,12.13
2023-04-30T03:46:38.624Z,16.42
2023-04-30T03:49:43.270Z,12.85
2023-04-30T03:52:47.188Z,14.27
2023-04-30T03:55:52.206Z,12.35
2023-04-30T03:58:55.860Z,15.10
2023-04-30T04:01:59.090Z,12.77
2023-04-30T04:05:04.066Z,14.18
2023-04-30T04:08:07.640Z,30.70
2023-04-30T04:11:11.402Z,97.38
2023-04-30T04:14:14.678Z,40.97
2023-04-30T04:17:18.436Z,22.33
2023-04-30T04:20:23.400Z,22.95
2023-04-30T04:23:26.649Z,19.90
2023-04-30T04:26:30.117Z,32.67
2023-04-30T04:29:33.428Z,67.85
2023-04-30T04:32:42.181Z,30.65
2023-04-30T04:35:47.594Z,16.67
2023-04-30T04:38:50.789Z,21.40
2023-04-30T04:41:54.083Z,11.98
2023-04-30T04:44:57.239Z,14.15
2023-04-30T04:48:00.464Z,11.35
2023-04-30T04:51:05.788Z,13.35
2023-04-30T04:54:09.154Z,13.70
2023-04-30T04:57:13.505Z,15.68
2023-04-30T05:00:17.845Z,17.17
2023-04-30T05:03:22.156Z,16.30
2023-04-30T05:06:28.664Z,17.13
2023-04-30T05:09:31.930Z,20.05
2023-04-30T05:12:35.458Z,15.35
2023-04-30T05:15:38.764Z,16.40
2023-04-30T05:18:42.009Z,12.55
2023-04-30T05:21:46.905Z,13.80
2023-04-30T05:24:52.954Z,16.35
2023-04-30T05:27:56.224Z,17.55
2023-04-30T05:30:59.571Z,13.75
2023-04-30T05:34:02.816Z,18.85
2023-04-30T05:37:07.420Z,22.15
2023-04-30T05:40:11.425Z,17.67
2023-04-30T05:43:14.667Z,23.10
2023-04-30T05:46:17.877Z,24.05
2023-04-30T05:49:21.204Z,22.55
2023-04-30T05:52:25.953Z,23.52
2023-04-30T05:55:29.416Z,27.40
2023-04-30T05:58:32.807Z,23.50
2023-04-30T06:01:36.121Z,24.13
2023-04-30T06:04:39.468Z,30.15
2023-04-30T06:07:44.476Z,26.23
2023-04-30T06:10:47.797Z,27.55
2023-04-30T06:13:51.133Z,29.80
2023-04-30T06:16:54.498Z,30.88
2023-04-30T06:19:58.989Z,39.13
2023-04-30T06:23:04.126Z,33.55
2023-04-30T06:26:07.422Z,33.85
2023-04-30T06:29:10.580Z,32.95
2023-04-30T06:32:13.843Z,32.72
2023-04-30T06:35:17.130Z,36.38
2023-04-30T06:38:21.762Z,37.05
2023-04-30T06:41:25.127Z,30.25
2023-04-30T06:44:28.463Z,29.58
2023-04-30T06:47:34.793Z,32.10
2023-04-30T06:50:44.700Z,31.25
2023-04-30T06:53:49.337Z,33.97
2023-04-30T06:56:52.726Z,38.63
2023-04-30T06:59:56.916Z,34.95
2023-04-30T07:03:02.737Z,43.83
2023-04-30T07:06:06.620Z,38.42
2023-04-30T07:09:12.972Z,41.55
2023-04-30T07:12:16.649Z,36.97
2023-04-30T07:15:20.134Z,36.15
2023-04-30T07:18:24.016Z,37.28
2023-04-30T07:21:27.936Z,41.13
2023-04-30T07:24:34.813Z,35.15
2023-04-30T07:27:38.184Z,39.05
2023-04-30T07:30:42.321Z,37.67
2023-04-30T07:33:45.691Z,35.63
2023-04-30T07:36:50.408Z,44.42
2023-04-30T07:39:55.604Z,36.58
2023-04-30T07:42:59.111Z,44.28
2023-04-30T07:46:02.785Z,45.90
2023-04-30T07:49:07.409Z,45.47
2023-04-30T07:52:12.463Z,51.63
2023-04-30T07:55:20.140Z,52.42
2023-04-30T07:58:23.559Z,53.85
2023-04-30T08:01:26.951Z,54.75
2023-04-30T08:04:30.462Z,59.10
2023-04-30T08:07:33.960Z,56.08
2023-04-30T08:10:38.630Z,62.05
2023-04-30T08:13:42.363Z,59.35
2023-04-30T08:16:45.845Z,61.50
2023-04-30T08:19:49.212Z,61.72
2023-04-30T08:22:52.708Z,67.90
2023-04-30T08:25:57.586Z,70.18
2023-04-30T08:29:00.916Z,70.70
2023-04-30T08:32:05.730Z,71.13
2023-04-30T08:35:24.847Z,74.05
2023-04-30T08:56:13.797Z,62.00
2023-04-30T08:59:17.027Z,56.22
2023-04-30T09:02:20.963Z,60.50
2023-04-30T09:05:27.205Z,56.10
2023-04-30T09:08:46.936Z,59.38
2023-04-30T09:11:52.124Z,58.87
2023-04-30T09:15:04.497Z,56.55
2023-04-30T09:18:10.918Z,55.65
2023-04-30T09:21:14.201Z,56.88
2023-04-30T09:24:18.656Z,56.55
2023-04-30T09:27:24.728Z,57.85
2023-04-30T09:30:34.927Z,50.15
2023-04-30T09:33:47.615Z,50.05
2023-04-30T09:36:55.821Z,50.03
2023-04-30T09:39:59.359Z,52.40
2023-04-30T09:43:05.307Z,42.67
2023-04-30T09:46:08.754Z,43.17
2023-04-30T09:49:12.895Z,41.35
2023-04-30T09:52:17.212Z,39.45
2023-04-30T09:55:21.946Z,37.22
2023-04-30T09:58:30.312Z,39.35
2023-04-30T10:01:38.499Z,37.85
2023-04-30T10:04:45.473Z,33.67
2023-04-30T10:07:48.831Z,28.55
2023-04-30T10:10:55.462Z,26.10
2023-04-30T10:14:04.234Z,27.02
2023-04-30T10:17:12.518Z,23.75
2023-04-30T10:20:18.515Z,23.20
2023-04-30T10:23:23.354Z,27.25
2023-04-30T10:26:26.990Z,23.58
2023-04-30T10:29:31.671Z,23.20
2023-04-30T10:32:40.008Z,21.50
2023-04-30T10:35:48.904Z,22.20
2023-04-30T10:38:53.404Z,28.02
2023-04-30T10:42:03.494Z,19.75
2023-04-30T10:45:12.561Z,17.70
2023-04-30T10:48:24.554Z,21.98
2023-04-30T10:51:47.602Z,19.48
2023-04-30T10:54:51.821Z,16.02
2023-04-30T10:57:55.505Z,16.83
2023-04-30T11:01:05.274Z,17.85
2023-04-30T11:04:10.447Z,15.57
2023-04-30T11:07:13.785Z,14.32
2023-04-30T11:10:17.516Z,18.80
2023-04-30T11:13:21.250Z,14.82
2023-04-30T11:16:30.884Z,15.48
2023-04-30T11:19:34.699Z,16.23
2023-04-30T11:22:39.703Z,15.02
2023-04-30T11:25:44.300Z,13.77
2023-04-30T11:28:54.985Z,12.10
2023-04-30T11:32:02.124Z,17.98
2023-04-30T11:35:07.214Z,11.20
2023-04-30T11:38:13.498Z,14.63
2023-04-30T11:41:16.911Z,15.65
2023-04-30T11:44:27.683Z,13.18
2023-04-30T11:47:41.807Z,11.73
2023-04-30T11:50:45.714Z,12.90
2023-04-30T11:53:50.664Z,12.60
2023-04-30T11:56:54.057Z,12.48
2023-04-30T11:59:57.521Z,10.45
2023-04-30T12:03:03.855Z,8.85
2023-04-30T12:06:07.605Z,11.95
2023-04-30T12:09:11.728Z,8.10
2023-04-30T12:12:14.976Z,14.02
2023-04-30T12:15:19.610Z,16.05
2023-04-30T12:18:24.283Z,18.23
2023-04-30T12:21:29.023Z,16.70
2023-04-30T12:24:32.372Z,11.85
2023-04-30T12:27:36.489Z,9.75
2023-04-30T12:30:40.657Z,10.82
2023-04-30T12:33:45.698Z,12.32
2023-04-30T12:36:49.087Z,16.13
2023-04-30T12:39:52.412Z,8.85
2023-04-30T12:43:01.947Z,14.93
2023-04-30T12:46:05.233Z,11.32
2023-04-30T12:49:11.223Z,10.05
2023-04-30T12:52:15.604Z,10.38
2023-04-30T12:55:21.119Z,10.25
2023-04-30T12:58:24.415Z,11.68
2023-04-30T13:01:28.199Z,7.47
2023-04-30T13:04:32.975Z,9.05
2023-04-30T13:07:40.667Z,9.48
2023-04-30T13:10:44.021Z,8.65
2023-04-30T13:13:47.307Z,10.20
2023-04-30T13:16:50.637Z,9.82
2023-04-30T13:19:55.448Z,10.70
2023-04-30T13:22:58.897Z,9.20
2023-04-30T13:26:02.369Z,6.78
2023-04-30T13:29:05.641Z,7.80
2023-04-30T13:32:10.105Z,10.27
2023-04-30T13:35:14.707Z,9.70
2023-04-30T13:38:17.963Z,8.63
2023-04-30T13:41:22.390Z,7.57
2023-04-30T13:44:25.707Z,7.40
2023-04-30T13:47:29.224Z,7.47
2023-04-30T13:50:33.996Z,8.98
2023-04-30T13:53:37.781Z,7.43
2023-04-30T13:56:41.130Z,5.88
2023-04-30T13:59:44.469Z,9.00
2023-04-30T14:02:47.865Z,6.18
2023-04-30T14:05:52.887Z,8.35
2023-04-30T14:08:56.284Z,5.05
2023-04-30T14:11:59.603Z,10.15
2023-04-30T14:15:03.543Z,7.32
2023-04-30T14:18:07.315Z,7.35
2023-04-30T14:21:12.917Z,9.38
2023-04-30T14:24:16.398Z,5.70
2023-04-30T14:27:19.742Z,7.95
2023-04-30T14:30:22.941Z,6.50
2023-04-30T14:33:26.377Z,7.15
2023-04-30T14:36:31.515Z,8.15
2023-04-30T14:39:35.047Z,8.00
2023-04-30T14:42:38.243Z,7.93
2023-04-30T14:45:41.487Z,12.65
2023-04-30T14:48:45.191Z,8.05
2023-04-30T14:51:49.816Z,5.25
2023-04-30T14:54:53.076Z,7.85
2023-04-30T14:57:56.389Z,7.07
2023-04-30T15:00:59.705Z,7.57
2023-04-30T15:04:03.486Z,4.60
2023-04-30T15:07:08.090Z,6.57
2023-04-30T15:10:12.120Z,9.05
2023-04-30T15:13:15.376Z,5.22
2023-04-30T15:16:18.868Z,5.50
2023-04-30T15:19:22.654Z,2.63
2023-04-30T15:22:27.389Z,9.77
2023-04-30T15:25:31.233Z,8.52
2023-04-30T15:28:34.840Z,3.53
2023-04-30T15:31:38.150Z,5.88
2023-04-30T15:34:41.732Z,5.85
2023-04-30T15:37:46.481Z,6.80
2023-04-30T15:40:49.925Z,9.63
2023-04-30T15:43:53.226Z,7.72
2023-04-30T15:46:56.709Z,6.20
2023-04-30T15:50:00.045Z,8.48
2023-04-30T15:53:04.744Z,6.40
2023-04-30T15:56:09.028Z,3.97
2023-04-30T15:59:17.431Z,4.72
2023-04-30T16:02:22.127Z,5.82
2023-04-30T16:05:26.056Z,12.48
2023-04-30T16:08:30.953Z,6.68
2023-04-30T16:11:34.692Z,12.43
2023-04-30T16:14:38.054Z,4.65
2023-04-30T16:17:41.327Z,4.70
2023-04-30T16:20:48.008Z,7.78
2023-04-30T16:23:52.801Z,5.75
2023-04-30T16:26:56.302Z,5.50
2023-04-30T16:29:59.648Z,385.30
2023-04-30T16:33:03.172Z,72.90
2023-04-30T16:36:06.733Z,60.33
2023-04-30T16:39:12.368Z,60.75
2023-04-30T16:42:15.821Z,42.15
2023-04-30T16:45:19.105Z,11.75
2023-04-30T16:48:23.295Z,8.93
2023-04-30T16:51:27.400Z,6.75
2023-04-30T16:54:32.216Z,6.45
2023-04-30T16:57:35.709Z,8.95
2023-04-30T17:00:39.170Z,12.43
2023-04-30T17:03:42.943Z,6.80
2023-04-30T17:06:47.320Z,19.65
2023-04-30T17:09:52.288Z,35.15
2023-04-30T17:12:57.675Z,30.48
2023-04-30T17:16:02.217Z,13.63
2023-04-30T17:19:05.749Z,12.80
2023-04-30T17:22:09.120Z,11.90
2023-04-30T17:25:14.195Z,11.38
2023-04-30T17:28:17.707Z,11.32
2023-04-30T17:31:21.189Z,10.95
2023-04-30T17:34:24.457Z,11.73
2023-04-30T17:37:27.662Z,24.50
2023-04-30T17:40:33.103Z,11.90
2023-04-30T17:43:40.088Z,5.00
2023-04-30T17:46:43.799Z,82.75
2023-04-30T17:49:47.570Z,21.25
2023-04-30T17:52:51.358Z,100.53
2023-04-30T17:55:56.078Z,19.85
2023-04-30T17:59:02.649Z,121.78
2023-04-30T18:02:07.480Z,199.15
2023-04-30T18:05:11.869Z,195.73
2023-04-30T18:08:15.221Z,195.00
2023-04-30T18:11:20.078Z,163.43
2023-04-30T18:14:23.410Z,137.23
2023-04-30T18:17:27.004Z,166.77
2023-04-30T18:20:30.539Z,173.82
2023-04-30T18:23:34.022Z,117.00
2023-04-30T18:26:38.779Z,56.70
2023-04-30T18:29:44.303Z,46.88
2023-04-30T18:32:47.803Z,47.35
2023-04-30T18:35:52.487Z,51.88
2023-04-30T18:38:55.929Z,58.05
2023-04-30T18:42:00.764Z,55.90
2023-04-30T18:45:04.693Z,26.42
2023-04-30T18:48:09.089Z,20.35
2023-04-30T18:51:13.037Z,13.65
2023-04-30T18:54:16.436Z,13.10
2023-04-30T18:57:21.262Z,13.80
2023-04-30T19:00:27.005Z,12.52
2023-04-30T19:03:30.930Z,10.93
2023-04-30T19:06:34.620Z,11.48
2023-04-30T19:09:38.235Z,16.52
2023-04-30T19:12:44.007Z,12.73
2023-04-30T19:15:48.916Z,14.02
2023-04-30T19:18:52.401Z,12.48
2023-04-30T19:21:55.829Z,11.27
2023-04-30T19:24:59.199Z,9.02
2023-04-30T19:28:03.995Z,12.23
2023-04-30T19:31:07.458Z,12.80
2023-04-30T19:34:10.886Z,12.77
2023-04-30T19:37:14.274Z,15.05
2023-04-30T19:40:18.451Z,13.98
2023-04-30T19:43:24.096Z,14.25
2023-04-30T19:46:27.752Z,13.48
2023-04-30T19:49:31.230Z,14.90
2023-04-30T19:52:34.686Z,17.35
2023-04-30T19:55:38.489Z,18.95
2023-04-30T19:58:43.936Z,14.88
2023-04-30T20:01:48.454Z,26.65
2023-04-30T20:04:52.743Z,27.10
2023-04-30T20:07:56.291Z,29.63
2023-04-30T20:11:01.286Z,27.48
2023-04-30T20:14:07.562Z,35.33
2023-04-30T20:17:10.888Z,38.08
2023-04-30T20:20:14.634Z,38.08
2023-04-30T20:23:20.382Z,35.42
2023-04-30T20:26:25.810Z,40.80
2023-04-30T20:29:31.177Z,33.80
2023-04-30T20:32:35.410Z,32.35
2023-04-30T20:35:41.567Z,35.88
2023-04-30T20:38:44.932Z,35.38
2023-04-30T20:41:48.410Z,25.92
2023-04-30T20:44:53.216Z,33.17
2023-04-30T20:47:56.878Z,24.27
2023-04-30T20:51:00.573Z,28.85
2023-04-30T20:54:04.248Z,20.63
2023-04-30T20:57:09.056Z,21.95
2023-04-30T21:00:14.705Z,22.30
2023-04-30T21:03:18.075Z,17.83
2023-04-30T21:06:21.621Z,16.17
2023-04-30T21:09:24.958Z,13.02
2023-04-30T21:12:28.503Z,15.82
2023-04-30T21:15:34.297Z,13.25
2023-04-30T21:18:37.679Z,12.50
2023-04-30T21:21:41.218Z,13.27
2023-04-30T21:24:44.785Z,12.68
2023-04-30T21:27:48.578Z,15.27
2023-04-30T21:30:53.529Z,17.92
2023-04-30T21:33:57.097Z,16.67
2023-04-30T21:37:01.012Z,14.02
2023-04-30T21:40:04.907Z,15.65
2023-04-30T21:43:09.727Z,19.92
2023-04-30T21:46:14.947Z,22.10
2023-04-30T21:49:18.320Z,18.17
2023-04-30T21:52:21.635Z,18.83
2023-04-30T21:55:26.604Z,19.98
2023-04-30T21:58:29.901Z,20.20
2023-04-30T22:01:34.703Z,24.30
2023-04-30T22:04:38.404Z,19.77
2023-04-30T22:07:42.225Z,22.58
2023-04-30T22:10:45.464Z,19.05
2023-04-30T22:13:48.786Z,21.95
2023-04-30T22:16:54.198Z,23.88
2023-04-30T22:19:58.189Z,21.98
2023-04-30T22:23:01.887Z,28.63
2023-04-30T22:26:09.615Z,24.27
2023-04-30T22:29:12.919Z,20.88
2023-04-30T22:32:19.465Z,20.25
2023-04-30T22:35:23.784Z,20.52
2023-04-30T22:38:27.188Z,21.15
2023-04-30T22:41:30.498Z,21.52
2023-04-30T22:44:34.787Z,22.65
2023-04-30T22:47:40.178Z,17.58
2023-04-30T22:50:43.494Z,17.45
2023-04-30T22:53:46.716Z,23.20
2023-04-30T22:56:49.965Z,17.42
2023-04-30T22:59:53.996Z,15.40
2023-04-30T23:02:58.905Z,19.42
2023-04-30T23:06:02.267Z,18.60
2023-04-30T23:09:05.621Z,15.80
2023-04-30T23:12:09.121Z,20.63
2023-04-30T23:15:13.519Z,19.55
2023-04-30T23:18:19.625Z,17.30
2023-04-30T23:21:22.993Z,22.23
2023-04-30T23:24:26.316Z,18.77
2023-04-30T23:27:29.759Z,19.08
2023-04-30T23:30:32.972Z,18.13
2023-04-30T23:33:37.655Z,16.02
2023-04-30T23:36:40.906Z,15.82
2023-04-30T23:39:44.169Z,17.67
2023-04-30T23:42:47.506Z,17.38
2023-04-30T23:45:50.707Z,15.55
2023-04-30T23:48:55.586Z,17.00
2023-04-30T23:51:58.793Z,17.20
2023-04-30T23:55:02.777Z,20.35
2023-04-30T23:58:06.193Z,17.45
